createdAt,value
2018-08-23T00:01:37.208Z,18.48
2018-08-23T00:04:08.648Z,18.39
2018-08-23T00:06:43.386Z,18.37
2018-08-23T00:09:14.845Z,18.29
2018-08-23T00:11:48.237Z,18.40
2018-08-23T00:14:18.824Z,18.24
2018-08-23T00:16:49.088Z,17.97
2018-08-23T00:19:23.031Z,17.84
2018-08-23T00:21:53.651Z,17.27
2018-08-23T00:24:25.634Z,17.11
2018-08-23T00:26:59.335Z,17.21
2018-08-23T00:29:33.212Z,17.38
2018-08-23T00:32:07.315Z,17.37
2018-08-23T00:34:39.796Z,17.47
2018-08-23T00:37:10.782Z,17.36
2018-08-23T00:39:41.280Z,17.09
2018-08-23T00:42:12.733Z,17.38
2018-08-23T00:44:56.796Z,17.39
2018-08-23T00:47:32.378Z,17.04
2018-08-23T00:50:03.395Z,17.13
2018-08-23T00:52:50.817Z,17.36
2018-08-23T00:55:31.229Z,17.43
2018-08-23T00:58:03.379Z,17.11
2018-08-23T01:00:36.356Z,17.40
2018-08-23T01:03:07.991Z,17.56
2018-08-23T01:05:41.091Z,17.47
2018-08-23T01:08:15.078Z,17.18
2018-08-23T01:10:45.500Z,17.41
2018-08-23T01:13:16.036Z,17.49
2018-08-23T01:15:49.926Z,17.50
2018-08-23T01:18:21.385Z,17.18
2018-08-23T01:20:52.933Z,16.92
2018-08-23T01:23:23.584Z,16.58
2018-08-23T01:25:54.274Z,16.65
2018-08-23T01:28:24.591Z,16.78
2018-08-23T01:30:55.147Z,16.80
2018-08-23T01:33:25.835Z,16.37
2018-08-23T01:35:56.485Z,16.17
2018-08-23T01:38:27.142Z,16.37
2018-08-23T01:41:02.668Z,16.69
2018-08-23T01:43:33.303Z,16.77
2018-08-23T01:46:04.903Z,16.69
2018-08-23T01:48:35.391Z,16.93
2018-08-23T01:51:05.780Z,17.12
2018-08-23T01:53:40.111Z,16.95
2018-08-23T01:56:10.532Z,16.58
2018-08-23T01:58:40.947Z,16.41
2018-08-23T02:01:19.449Z,16.28
2018-08-23T02:03:50.039Z,16.26
2018-08-23T02:06:21.760Z,16.34
2018-08-23T02:08:52.583Z,16.26
2018-08-23T02:11:23.157Z,16.27
2018-08-23T02:13:53.730Z,16.09
2018-08-23T02:16:24.463Z,16.14
2018-08-23T02:18:54.952Z,16.17
2018-08-23T02:21:25.844Z,15.85
2018-08-23T02:23:56.416Z,15.87
2018-08-23T02:26:27.028Z,15.94
2018-08-23T02:28:57.634Z,15.70
2018-08-23T02:31:28.311Z,15.95
2018-08-23T02:33:58.723Z,15.95
2018-08-23T02:36:29.216Z,16.38
2018-08-23T02:39:01.722Z,16.54
2018-08-23T02:41:32.370Z,16.59
2018-08-23T02:44:02.718Z,16.37
2018-08-23T02:46:34.140Z,16.43
2018-08-23T02:49:04.555Z,16.56
2018-08-23T02:51:41.819Z,16.56
2018-08-23T02:54:14.997Z,16.07
2018-08-23T02:56:50.164Z,15.96
2018-08-23T02:59:20.534Z,16.40
2018-08-23T03:01:51.398Z,16.12
2018-08-23T03:04:29.092Z,15.77
2018-08-23T03:07:00.907Z,15.46
2018-08-23T03:09:39.653Z,15.44
2018-08-23T03:12:12.284Z,15.40
2018-08-23T03:14:42.572Z,15.42
2018-08-23T03:17:15.026Z,15.18
2018-08-23T03:20:23.426Z,15.32
2018-08-23T03:22:54.916Z,15.33
2018-08-23T03:25:26.414Z,15.45
2018-08-23T03:27:56.879Z,15.49
2018-08-23T03:30:29.704Z,15.20
2018-08-23T03:33:01.816Z,15.37
2018-08-23T03:35:32.165Z,15.37
2018-08-23T03:38:03.552Z,15.68
2018-08-23T03:40:34.162Z,15.87
2018-08-23T03:43:05.553Z,16.08
2018-08-23T03:45:35.901Z,16.15
2018-08-23T03:48:07.069Z,16.15
2018-08-23T03:50:42.494Z,16.01
2018-08-23T03:53:14.093Z,15.86
2018-08-23T03:55:44.731Z,15.65
2018-08-23T03:58:15.232Z,15.53
2018-08-23T04:00:59.486Z,16.01
2018-08-23T04:03:30.520Z,15.70
2018-08-23T04:06:15.006Z,15.66
2018-08-23T04:08:46.517Z,15.64
2018-08-23T04:11:17.098Z,15.30
2018-08-23T04:13:48.693Z,15.57
2018-08-23T04:16:25.392Z,15.68
2018-08-23T04:18:56.250Z,15.59
2018-08-23T04:21:28.470Z,15.73
2018-08-23T04:24:01.748Z,15.61
2018-08-23T04:26:41.263Z,15.26
2018-08-23T04:29:25.773Z,15.11
2018-08-23T04:31:55.981Z,14.98
2018-08-23T04:34:26.455Z,14.90
2018-08-23T04:36:56.812Z,15.00
2018-08-23T04:39:27.110Z,15.31
2018-08-23T04:42:02.484Z,15.28
2018-08-23T04:44:43.244Z,15.66
2018-08-23T04:47:13.508Z,15.89
2018-08-23T04:49:44.094Z,16.00
2018-08-23T04:52:14.280Z,16.05
2018-08-23T04:54:44.602Z,16.04
2018-08-23T04:57:14.940Z,16.16
2018-08-23T04:59:46.452Z,16.22
2018-08-23T05:02:17.093Z,16.30
2018-08-23T05:04:47.612Z,16.41
2018-08-23T05:07:17.966Z,16.41
2018-08-23T05:09:48.536Z,16.47
2018-08-23T05:12:18.880Z,16.51
2018-08-23T05:14:49.901Z,16.62
2018-08-23T05:17:20.220Z,16.68
2018-08-23T05:19:50.707Z,16.54
2018-08-23T05:22:21.056Z,16.79
2018-08-23T05:24:51.259Z,16.93
2018-08-23T05:27:21.402Z,17.05
2018-08-23T05:29:51.637Z,17.27
2018-08-23T05:32:21.989Z,17.52
2018-08-23T05:34:52.494Z,17.48
2018-08-23T05:37:23.021Z,17.48
2018-08-23T05:39:53.740Z,17.44
2018-08-23T05:42:35.660Z,17.08
2018-08-23T05:45:06.141Z,17.05
2018-08-23T05:47:36.469Z,17.27
2018-08-23T05:50:06.811Z,17.60
2018-08-23T05:52:37.202Z,17.75
2018-08-23T05:55:09.553Z,17.90
2018-08-23T05:57:40.876Z,17.99
2018-08-23T06:00:13.872Z,18.13
2018-08-23T06:02:44.233Z,18.28
2018-08-23T06:05:14.487Z,18.56
2018-08-23T06:07:44.761Z,18.85
2018-08-23T06:10:15.158Z,18.63
2018-08-23T06:12:45.604Z,18.51
2018-08-23T06:15:17.417Z,18.74
2018-08-23T06:17:48.497Z,18.84
2018-08-23T06:20:21.872Z,19.22
2018-08-23T06:22:52.649Z,19.31
2018-08-23T06:25:22.915Z,19.54
2018-08-23T06:27:54.856Z,19.61
2018-08-23T06:30:25.216Z,19.61
2018-08-23T06:32:59.731Z,19.81
2018-08-23T06:35:40.395Z,19.99
2018-08-23T06:38:11.327Z,20.34
2018-08-23T06:40:41.765Z,20.39
2018-08-23T06:43:13.866Z,20.57
2018-08-23T06:45:44.222Z,20.31
2018-08-23T06:48:14.405Z,20.68
2018-08-23T06:51:02.678Z,21.04
2018-08-23T06:53:40.669Z,21.37
2018-08-23T06:56:11.526Z,21.54
2018-08-23T06:58:41.894Z,21.67
2018-08-23T07:01:23.780Z,21.90
2018-08-23T07:04:02.219Z,22.09
2018-08-23T07:06:32.408Z,22.23
2018-08-23T07:09:03.325Z,22.27
2018-08-23T07:11:33.827Z,22.49
2018-08-23T07:14:09.727Z,22.65
2018-08-23T07:16:40.670Z,22.94
2018-08-23T07:19:26.787Z,23.15
2018-08-23T07:21:58.309Z,23.48
2018-08-23T07:24:42.442Z,23.75
2018-08-23T07:27:14.132Z,23.87
2018-08-23T07:29:48.352Z,23.92
2018-08-23T07:32:20.130Z,24.09
2018-08-23T07:35:03.996Z,24.30
2018-08-23T07:37:36.448Z,24.52
2018-08-23T07:40:13.523Z,24.66
2018-08-23T07:42:44.897Z,24.87
2018-08-23T07:45:15.906Z,25.03
2018-08-23T07:47:48.390Z,25.17
2018-08-23T07:50:22.188Z,25.53
2018-08-23T07:52:54.070Z,25.73
2018-08-23T07:55:24.375Z,25.95
2018-08-23T07:57:55.089Z,26.17
2018-08-23T08:00:34.974Z,26.30
2018-08-23T08:03:05.796Z,26.46
2018-08-23T08:05:40.670Z,26.61
2018-08-23T08:08:12.810Z,26.76
2018-08-23T08:10:45.507Z,26.77
2018-08-23T08:13:16.067Z,27.03
2018-08-23T08:15:46.252Z,27.25
2018-08-23T08:18:24.010Z,27.45
2018-08-23T08:21:03.032Z,27.63
2018-08-23T08:23:34.016Z,27.66
2018-08-23T08:26:04.474Z,27.75
2018-08-23T08:28:35.465Z,27.95
2018-08-23T08:31:05.848Z,28.06
2018-08-23T08:33:37.963Z,27.88
2018-08-23T08:36:08.625Z,28.14
2018-08-23T08:38:39.114Z,28.19
2018-08-23T08:41:09.400Z,28.11
2018-08-23T08:43:41.485Z,28.22
2018-08-23T08:46:11.748Z,28.09
2018-08-23T08:48:42.107Z,28.40
2018-08-23T08:51:18.053Z,28.14
2018-08-23T08:53:48.651Z,27.96
2018-08-23T08:56:29.278Z,28.19
2018-08-23T08:58:59.653Z,28.34
2018-08-23T09:01:30.261Z,28.46
2018-08-23T09:04:00.509Z,28.39
2018-08-23T09:06:46.112Z,28.62
2018-08-23T09:09:34.855Z,28.66
2018-08-23T09:12:09.467Z,28.99
2018-08-23T09:14:40.900Z,28.60
2018-08-23T09:17:26.772Z,28.62
2018-08-23T09:20:09.545Z,28.78
2018-08-23T09:22:42.240Z,28.80
2018-08-23T09:25:17.901Z,28.75
2018-08-23T09:27:49.690Z,28.82
2018-08-23T09:30:25.128Z,28.88
2018-08-23T09:32:56.040Z,29.20
2018-08-23T09:35:30.641Z,29.29
2018-08-23T09:38:07.994Z,28.88
2018-08-23T09:40:39.550Z,28.99
2018-08-23T09:43:11.568Z,28.99
2018-08-23T09:45:42.122Z,29.03
2018-08-23T09:48:13.077Z,29.09
2018-08-23T09:50:43.697Z,29.49
2018-08-23T09:53:19.216Z,29.56
2018-08-23T09:55:50.063Z,29.25
2018-08-23T09:58:25.891Z,29.33
2018-08-23T10:01:03.335Z,29.25
2018-08-23T10:03:39.691Z,29.46
2018-08-23T10:06:15.036Z,29.78
2018-08-23T10:08:50.341Z,29.21
2018-08-23T10:11:25.792Z,29.49
2018-08-23T10:14:01.275Z,29.75
2018-08-23T10:16:36.725Z,29.94
2018-08-23T10:19:11.385Z,30.04
2018-08-23T10:21:46.704Z,29.82
2018-08-23T10:24:22.110Z,29.77
2018-08-23T10:26:52.957Z,29.19
2018-08-23T10:29:23.372Z,29.65
2018-08-23T10:31:53.596Z,29.82
2018-08-23T10:34:23.855Z,29.66
2018-08-23T10:36:54.072Z,29.59
2018-08-23T10:39:24.505Z,29.62
2018-08-23T10:41:55.126Z,29.46
2018-08-23T10:44:25.620Z,29.59
2018-08-23T10:46:57.069Z,29.74
2018-08-23T10:49:27.841Z,29.27
2018-08-23T10:51:58.218Z,28.97
2018-08-23T10:54:28.560Z,29.26
2018-08-23T10:56:58.915Z,29.86
2018-08-23T10:59:29.696Z,30.15
2018-08-23T11:02:00.338Z,29.76
2018-08-23T11:04:31.575Z,29.79
2018-08-23T11:07:01.981Z,29.91
2018-08-23T11:09:37.162Z,29.87
2018-08-23T11:12:11.078Z,29.78
2018-08-23T11:14:41.724Z,29.55
2018-08-23T11:17:18.081Z,29.37
2018-08-23T11:19:53.493Z,29.03
2018-08-23T11:22:27.866Z,28.88
2018-08-23T11:24:58.248Z,28.84
2018-08-23T11:27:28.557Z,28.73
2018-08-23T11:29:58.858Z,28.75
2018-08-23T11:32:29.253Z,28.62
2018-08-23T11:34:59.495Z,28.57
2018-08-23T11:37:30.205Z,28.53
2018-08-23T11:40:00.434Z,28.58
2018-08-23T11:42:30.852Z,28.51
2018-08-23T11:45:01.363Z,28.56
2018-08-23T11:47:32.527Z,28.37
2018-08-23T11:50:03.100Z,28.38
2018-08-23T11:52:33.314Z,28.37
2018-08-23T11:55:04.610Z,28.44
2018-08-23T11:57:34.839Z,28.48
2018-08-23T12:00:06.199Z,28.41
2018-08-23T12:02:36.308Z,28.23
2018-08-23T12:05:10.428Z,28.09
2018-08-23T12:07:48.527Z,27.76
2018-08-23T12:10:20.196Z,27.25
2018-08-23T12:12:52.080Z,26.96
2018-08-23T12:15:35.697Z,26.66
2018-08-23T12:18:06.926Z,26.37
2018-08-23T12:20:38.920Z,26.25
2018-08-23T12:23:11.064Z,25.66
2018-08-23T12:25:41.517Z,25.36
2018-08-23T12:28:18.030Z,25.39
2018-08-23T12:30:48.765Z,25.32
2018-08-23T12:33:19.141Z,25.31
2018-08-23T12:35:49.597Z,25.44
2018-08-23T12:38:24.861Z,25.60
2018-08-23T12:40:59.987Z,25.75
2018-08-23T12:43:35.353Z,25.78
2018-08-23T12:46:06.034Z,25.70
2018-08-23T12:48:36.429Z,25.60
2018-08-23T12:51:06.745Z,25.36
2018-08-23T12:53:37.303Z,25.34
2018-08-23T12:56:07.763Z,25.44
2018-08-23T12:58:38.195Z,25.43
2018-08-23T13:01:08.492Z,25.60
2018-08-23T13:03:38.866Z,25.93
2018-08-23T13:06:09.262Z,26.41
2018-08-23T13:08:39.434Z,26.09
2018-08-23T13:11:10.140Z,26.10
2018-08-23T13:13:40.556Z,26.15
2018-08-23T13:16:11.042Z,26.13
2018-08-23T13:18:41.436Z,26.20
2018-08-23T13:21:11.773Z,26.19
2018-08-23T13:23:47.673Z,26.37
2018-08-23T13:26:17.921Z,26.96
2018-08-23T13:28:48.597Z,26.96
2018-08-23T13:31:18.898Z,26.94
2018-08-23T13:33:49.200Z,26.84
2018-08-23T13:36:19.641Z,26.89
2018-08-23T13:38:50.033Z,27.00
2018-08-23T13:41:20.921Z,26.76
2018-08-23T13:43:51.139Z,27.02
2018-08-23T13:46:21.336Z,27.17
2018-08-23T13:48:51.775Z,27.01
2018-08-23T13:51:22.405Z,26.98
2018-08-23T13:53:52.808Z,26.89
2018-08-23T13:56:23.656Z,26.51
2018-08-23T13:58:55.009Z,26.39
2018-08-23T14:01:28.688Z,26.49
2018-08-23T14:03:59.467Z,26.05
2018-08-23T14:06:30.084Z,26.32
2018-08-23T14:09:00.379Z,26.49
2018-08-23T14:11:30.843Z,26.54
2018-08-23T14:14:01.273Z,26.21
2018-08-23T14:16:31.448Z,26.41
2018-08-23T14:19:02.117Z,26.56
2018-08-23T14:21:32.345Z,26.97
2018-08-23T14:24:02.944Z,26.98
2018-08-23T14:26:33.517Z,27.02
2018-08-23T14:29:04.072Z,27.01
2018-08-23T14:31:34.268Z,26.71
2018-08-23T14:34:04.761Z,26.60
2018-08-23T14:36:35.033Z,26.62
2018-08-23T14:39:08.021Z,26.45
2018-08-23T14:41:38.762Z,26.58
2018-08-23T14:44:09.931Z,26.65
2018-08-23T14:46:46.001Z,26.65
2018-08-23T14:49:21.472Z,26.49
2018-08-23T14:51:51.912Z,26.66
2018-08-23T14:54:27.236Z,26.57
2018-08-23T14:57:02.648Z,26.43
2018-08-23T14:59:33.009Z,26.51
2018-08-23T15:02:04.364Z,26.38
2018-08-23T15:04:34.817Z,26.41
2018-08-23T15:07:06.971Z,26.48
2018-08-23T15:09:38.789Z,26.31
2018-08-23T15:12:09.543Z,26.35
2018-08-23T15:14:40.024Z,26.51
2018-08-23T15:17:12.070Z,26.34
2018-08-23T15:19:42.657Z,26.28
2018-08-23T15:25:09.454Z,26.93
2018-08-23T15:27:39.957Z,27.04
2018-08-23T15:30:11.878Z,27.15
2018-08-23T15:32:42.791Z,26.99
2018-08-23T15:35:19.144Z,27.10
2018-08-23T15:37:49.544Z,27.01
2018-08-23T15:40:24.491Z,26.85
2018-08-23T15:42:55.103Z,26.69
2018-08-23T15:45:27.309Z,26.42
2018-08-23T15:47:57.577Z,26.24
2018-08-23T15:50:27.965Z,26.18
2018-08-23T15:52:58.183Z,26.26
2018-08-23T15:55:28.666Z,26.25
2018-08-23T15:57:58.781Z,26.16
2018-08-23T16:00:33.101Z,26.07
2018-08-23T16:03:04.413Z,25.99
2018-08-23T16:05:36.927Z,25.83
2018-08-23T16:08:08.485Z,26.02
2018-08-23T16:10:40.193Z,26.13
2018-08-23T16:13:13.890Z,26.24
2018-08-23T16:15:44.632Z,26.31
2018-08-23T16:18:20.439Z,26.12
2018-08-23T16:20:54.587Z,26.16
2018-08-23T16:23:25.918Z,26.14
2018-08-23T16:26:00.965Z,25.95
2018-08-23T16:28:35.309Z,26.03
2018-08-23T16:31:06.977Z,26.07
2018-08-23T16:33:37.760Z,25.98
2018-08-23T16:36:11.574Z,26.05
2018-08-23T16:38:42.297Z,26.12
2018-08-23T16:41:12.649Z,26.16
2018-08-23T16:43:43.093Z,26.10
2018-08-23T16:46:13.336Z,26.08
2018-08-23T16:48:44.953Z,26.12
2018-08-23T16:51:19.029Z,26.04
2018-08-23T16:53:50.475Z,25.98
2018-08-23T16:56:25.381Z,26.00
2018-08-23T16:58:56.283Z,25.88
2018-08-23T17:01:26.852Z,25.79
2018-08-23T17:03:58.738Z,25.64
2018-08-23T17:06:30.181Z,25.63
2018-08-23T17:09:00.875Z,25.38
2018-08-23T17:11:31.493Z,25.33
2018-08-23T20:13:11.745Z,21.86
2018-08-23T20:15:42.417Z,21.80
2018-08-23T20:18:13.054Z,21.89
2018-08-23T20:23:54.996Z,21.79
2018-08-23T20:26:29.664Z,21.84
2018-08-23T20:29:01.097Z,21.68
2018-08-23T20:31:31.691Z,21.70
2018-08-23T20:34:01.957Z,21.57
2018-08-23T20:36:33.286Z,21.75
2018-08-23T20:39:03.907Z,21.80
2018-08-23T20:41:34.203Z,21.72
2018-08-23T20:44:04.747Z,21.62
2018-08-23T20:46:35.125Z,21.71
2018-08-23T20:49:05.540Z,21.41
2018-08-23T20:51:36.080Z,21.14
2018-08-23T20:54:07.145Z,20.96
2018-08-23T20:56:37.829Z,21.01
2018-08-23T20:59:08.320Z,21.20
2018-08-23T21:01:41.068Z,21.17
2018-08-23T21:04:11.791Z,21.47
2018-08-23T21:06:42.091Z,21.37
2018-08-23T21:09:13.679Z,21.64
2018-08-23T21:11:44.167Z,21.76
2018-08-23T21:14:15.055Z,21.88
2018-08-23T21:16:46.013Z,21.72
2018-08-23T21:19:16.255Z,21.66
2018-08-23T21:21:46.724Z,21.74
2018-08-23T21:24:17.159Z,21.70
2018-08-23T21:26:47.777Z,21.74
2018-08-23T21:29:18.222Z,21.73
2018-08-23T21:31:51.312Z,21.77
2018-08-23T21:34:22.864Z,21.70
2018-08-23T21:36:57.776Z,21.64
2018-08-23T21:39:34.758Z,21.72
2018-08-23T21:42:07.363Z,21.74
2018-08-23T21:44:38.420Z,21.73
2018-08-23T21:47:09.059Z,21.61
2018-08-23T21:49:39.564Z,21.72
2018-08-23T21:52:09.856Z,21.88
2018-08-23T21:54:40.940Z,21.98
2018-08-23T21:57:11.402Z,21.94
2018-08-23T21:59:41.669Z,22.14
2018-08-23T22:02:16.861Z,22.06
2018-08-23T22:04:53.855Z,22.06
2018-08-23T22:07:29.669Z,22.01
2018-08-23T22:10:01.929Z,22.09
2018-08-23T22:12:32.294Z,22.11
2018-08-23T22:15:05.655Z,22.13
2018-08-23T22:17:36.012Z,22.02
2018-08-23T22:20:06.201Z,21.69
2018-08-23T22:22:36.736Z,21.71
2018-08-23T22:25:07.572Z,21.48
2018-08-23T22:27:37.816Z,21.53
2018-08-23T22:30:08.109Z,21.68
2018-08-23T22:32:38.375Z,21.65
2018-08-23T22:35:11.297Z,21.50
2018-08-23T22:37:41.818Z,21.59
2018-08-23T22:40:12.284Z,21.92
2018-08-23T22:42:42.856Z,21.63
2018-08-23T22:45:13.121Z,21.62
2018-08-23T22:47:43.455Z,21.53
2018-08-23T22:50:15.491Z,21.61
2018-08-23T22:52:46.502Z,21.43
2018-08-23T22:55:23.019Z,21.36
2018-08-23T22:57:54.886Z,21.34
2018-08-23T23:00:30.571Z,21.36
2018-08-23T23:03:01.156Z,21.52
2018-08-23T23:05:33.174Z,21.31
2018-08-23T23:08:10.311Z,21.32
2018-08-23T23:10:41.133Z,21.37
2018-08-23T23:13:13.296Z,21.25
2018-08-23T23:15:43.692Z,20.84
2018-08-23T23:18:13.925Z,21.12
2018-08-23T23:20:44.171Z,21.14
2018-08-23T23:23:14.462Z,21.06
2018-08-23T23:25:44.840Z,20.79
2018-08-23T23:28:15.282Z,20.91
2018-08-23T23:30:46.016Z,20.83
2018-08-23T23:33:16.202Z,20.81
2018-08-23T23:35:47.455Z,21.01
2018-08-23T23:38:17.972Z,21.05
2018-08-23T23:40:48.245Z,20.75
2018-08-23T23:43:18.879Z,20.92
2018-08-23T23:45:49.316Z,20.95
2018-08-23T23:48:19.563Z,20.92
2018-08-23T23:50:49.918Z,21.00
2018-08-23T23:53:20.680Z,20.95
2018-08-23T23:55:50.853Z,21.00
2018-08-23T23:58:21.457Z,20.93
